Time;durP1;ratioP1;P1;durP2;ratioP2;P2;SDS_P1;SDS_P2;PMS_P1;PMS_P2;Temp;Humidity;BMP_temperature;BMP_pressure;BME280_temperature;BME280_humidity;BME280_pressure;Samples;Min_cycle;Max_cycle;Signal;HPM_P1;HPM_P2
2023/05/02 00:01:12;;;;;;;15.50;6.55;;;12.40;75.70;;;;;;5068390;28;20155;-79
2023/05/02 00:03:40;;;;;;;15.95;6.88;;;12.40;75.70;;;;;;5064550;28;20505;-78
2023/05/02 00:06:07;;;;;;;14.45;5.55;;;12.40;75.70;;;;;;5066549;28;20507;-79
2023/05/02 00:08:34;;;;;;;12.23;5.20;;;12.40;75.40;;;;;;5069367;28;20053;-79
2023/05/02 00:11:01;;;;;;;11.52;5.75;;;12.40;75.30;;;;;;5068925;28;20140;-79
2023/05/02 00:13:28;;;;;;;12.18;4.95;;;12.40;75.10;;;;;;5052346;28;20050;-78
2023/05/02 00:15:56;;;;;;;10.07;3.47;;;12.40;74.80;;;;;;5069642;28;20045;-79
2023/05/02 00:18:24;;;;;;;11.65;4.07;;;12.40;74.60;;;;;;5083516;28;20045;-79
2023/05/02 00:20:51;;;;;;;8.63;3.90;;;12.40;74.70;;;;;;5059069;28;20685;-79
2023/05/02 00:23:17;;;;;;;11.88;3.92;;;12.50;75.00;;;;;;5069851;28;20449;-79
2023/05/02 00:25:45;;;;;;;10.27;3.88;;;12.50;74.70;;;;;;5060798;28;20063;-79
2023/05/02 00:28:12;;;;;;;7.63;3.55;;;12.40;74.60;;;;;;5070508;28;20426;-79
2023/05/02 00:30:42;;;;;;;10.00;4.00;;;12.40;74.60;;;;;;5069238;28;20064;-79
2023/05/02 00:33:12;;;;;;;9.10;3.63;;;12.50;74.70;;;;;;5068686;28;20119;-79
2023/05/02 00:35:39;;;;;;;10.98;4.03;;;12.50;74.40;;;;;;5051105;28;20052;-79
2023/05/02 00:38:06;;;;;;;7.32;2.85;;;12.50;74.50;;;;;;5069343;28;20114;-79
2023/05/02 00:40:43;;;;;;;9.55;3.50;;;12.40;74.50;;;;;;5052550;28;20126;-79
2023/05/02 00:43:10;;;;;;;8.45;3.33;;;12.40;74.40;;;;;;5069115;28;20523;-79
2023/05/02 00:45:39;;;;;;;9.57;3.40;;;12.40;74.10;;;;;;5047634;28;20111;-79
2023/05/02 00:48:07;;;;;;;9.23;3.25;;;12.40;74.30;;;;;;5064219;28;20064;-79
2023/05/02 00:50:37;;;;;;;7.63;3.35;;;12.30;73.90;;;;;;5058629;28;20041;-79
2023/05/02 00:53:04;;;;;;;8.80;3.20;;;12.30;74.00;;;;;;5067217;28;20543;-79
2023/05/02 00:55:32;;;;;;;7.82;2.88;;;12.30;73.80;;;;;;5069389;28;20072;-79
2023/05/02 00:58:00;;;;;;;8.33;2.90;;;12.30;73.50;;;;;;5068961;28;20063;-80
2023/05/02 01:00:37;;;;;;;8.32;2.85;;;12.30;73.60;;;;;;5052410;28;20057;-79
2023/05/02 01:03:15;;;;;;;6.63;2.30;;;12.30;73.80;;;;;;5070646;28;20641;-79
2023/05/02 01:05:49;;;;;;;7.50;2.35;;;12.20;73.20;;;;;;5067561;28;20122;-79
2023/05/02 01:08:26;;;;;;;6.97;2.20;;;12.20;73.40;;;;;;5064028;28;20497;-79
2023/05/02 01:11:01;;;;;;;9.90;2.60;;;12.20;73.20;;;;;;5063194;28;20045;-79
2023/05/02 01:13:32;;;;;;;7.15;2.50;;;12.20;73.10;;;;;;5069099;28;20554;-80
2023/05/02 01:16:02;;;;;;;6.03;2.50;;;12.20;73.00;;;;;;5066470;28;20045;-79
2023/05/02 01:18:32;;;;;;;8.52;2.40;;;12.10;73.00;;;;;;5068350;28;20064;-79
2023/05/02 01:21:02;;;;;;;7.88;2.30;;;12.10;73.00;;;;;;5065532;28;20139;-79
2023/05/02 01:23:36;;;;;;;7.50;2.03;;;12.10;73.00;;;;;;5047315;28;20040;-79
2023/05/02 01:26:13;;;;;;;9.82;2.67;;;12.10;73.20;;;;;;5063394;28;20672;-79
2023/05/02 01:28:58;;;;;;;6.72;2.08;;;12.00;72.90;;;;;;5066638;28;20052;-79
2023/05/02 01:31:27;;;;;;;9.20;2.60;;;12.00;72.30;;;;;;5047884;28;20129;-79
2023/05/02 01:33:55;;;;;;;6.57;2.50;;;12.00;72.40;;;;;;5063765;28;20519;-79
2023/05/02 01:36:25;;;;;;;7.07;1.93;;;12.00;72.40;;;;;;5051105;28;20049;-79
2023/05/02 01:38:54;;;;;;;6.43;2.13;;;12.00;72.30;;;;;;5051328;28;20049;-79
2023/05/02 01:41:22;;;;;;;7.05;2.20;;;12.00;72.30;;;;;;5068383;28;20041;-78
2023/05/02 01:43:50;;;;;;;6.22;2.40;;;12.00;72.50;;;;;;5067569;28;20041;-80
2023/05/02 01:46:21;;;;;;;6.55;2.22;;;11.90;72.30;;;;;;5062648;28;20111;-79
2023/05/02 01:48:51;;;;;;;5.60;2.20;;;11.90;72.40;;;;;;5062711;28;20045;-79
2023/05/02 01:51:20;;;;;;;8.40;2.60;;;11.90;72.40;;;;;;5067695;28;20076;-78
2023/05/02 01:53:49;;;;;;;7.72;2.58;;;11.90;72.70;;;;;;5051407;28;20422;-79
2023/05/02 01:56:19;;;;;;;8.75;2.33;;;11.90;72.80;;;;;;5084707;28;20140;-78
2023/05/02 01:58:47;;;;;;;8.32;2.40;;;11.80;73.00;;;;;;5051404;28;20136;-79
2023/05/02 02:01:16;;;;;;;8.27;2.40;;;11.70;72.90;;;;;;5067997;28;20063;-79
2023/05/02 02:03:44;;;;;;;7.03;2.25;;;11.70;73.00;;;;;;5066551;28;20184;-79
2023/05/02 02:06:13;;;;;;;8.88;2.40;;;11.70;72.80;;;;;;5080375;28;20045;-79
2023/05/02 02:08:40;;;;;;;8.40;2.65;;;11.70;73.10;;;;;;5048842;28;20491;-79
2023/05/02 02:11:11;;;;;;;5.82;2.42;;;11.60;73.00;;;;;;5067336;28;20625;-79
2023/05/02 02:13:43;;;;;;;8.63;2.37;;;11.60;73.20;;;;;;5049034;28;20479;-79
2023/05/02 02:16:14;;;;;;;8.02;2.00;;;11.50;73.40;;;;;;5067667;28;20059;-79
2023/05/02 02:18:44;;;;;;;8.05;2.53;;;11.50;73.70;;;;;;5058499;28;20059;-79
2023/05/02 02:21:13;;;;;;;6.63;2.28;;;11.50;73.60;;;;;;5048623;28;20654;-79
2023/05/02 02:23:42;;;;;;;8.50;2.58;;;11.40;73.70;;;;;;5062146;28;20041;-79
2023/05/02 02:26:09;;;;;;;5.43;1.80;;;11.40;73.70;;;;;;5047684;28;20050;-79
2023/05/02 02:28:37;;;;;;;6.68;2.20;;;11.40;74.00;;;;;;5063231;28;20076;-79
2023/05/02 02:31:04;;;;;;;7.78;2.40;;;11.40;74.00;;;;;;5049898;28;20049;-79
2023/05/02 02:33:31;;;;;;;5.63;1.92;;;11.30;73.90;;;;;;5050424;28;20041;-79
2023/05/02 02:36:11;;;;;;;7.07;1.90;;;11.30;73.90;;;;;;5067373;28;20442;-79
2023/05/02 02:38:52;;;;;;;7.67;2.23;;;11.30;74.20;;;;;;5048588;28;20517;-79
2023/05/02 02:41:23;;;;;;;8.40;2.10;;;11.30;73.90;;;;;;5049051;28;20041;-79
2023/05/02 02:44:04;;;;;;;9.45;2.67;;;11.30;73.50;;;;;;5050201;28;20135;-79
2023/05/02 02:46:44;;;;;;;7.97;2.03;;;11.40;73.70;;;;;;5055147;28;20060;-78
2023/05/02 02:52:21;;;;;;;8.33;2.23;;;11.40;73.30;;;;;;5066219;28;20056;-78
2023/05/02 02:54:54;;;;;;;11.68;2.58;;;11.30;73.20;;;;;;5051993;28;20154;-79
2023/05/02 02:57:28;;;;;;;10.23;2.38;;;11.40;73.40;;;;;;5067494;28;20059;-79
2023/05/02 03:00:13;;;;;;;10.40;2.97;;;11.30;73.60;;;;;;5068726;28;20164;-79
2023/05/02 03:02:42;;;;;;;9.85;2.80;;;11.40;73.80;;;;;;5083808;28;20053;-79
2023/05/02 03:05:10;;;;;;;14.27;2.73;;;11.30;73.90;;;;;;5067061;28;20119;-78
2023/05/02 03:07:39;;;;;;;12.18;2.53;;;11.30;73.80;;;;;;5050202;28;20049;-79
2023/05/02 03:10:08;;;;;;;12.80;2.85;;;11.30;73.70;;;;;;5037790;28;20041;-79
2023/05/02 03:12:36;;;;;;;14.05;3.00;;;11.30;73.50;;;;;;5048085;28;20103;-79
2023/05/02 03:15:20;;;;;;;15.38;2.72;;;11.30;73.30;;;;;;5046932;28;20064;-79
2023/05/02 03:17:47;;;;;;;14.27;2.73;;;11.30;73.20;;;;;;5048287;28;20502;-79
2023/05/02 03:20:14;;;;;;;13.23;2.85;;;11.20;73.10;;;;;;5049086;28;20744;-79
2023/05/02 03:22:44;;;;;;;13.55;3.08;;;11.20;73.00;;;;;;5040709;28;20132;-78
2023/05/02 03:25:12;;;;;;;17.95;2.88;;;11.20;72.90;;;;;;5043934;28;20512;-78
2023/05/02 03:27:43;;;;;;;13.25;2.97;;;11.10;72.60;;;;;;5064900;28;20507;-79
2023/05/02 03:30:12;;;;;;;16.63;2.90;;;11.10;72.50;;;;;;5048124;28;20044;-78
2023/05/02 03:32:39;;;;;;;18.80;3.55;;;11.10;72.30;;;;;;5040882;28;20467;-78
2023/05/02 03:35:07;;;;;;;17.90;3.25;;;11.10;72.20;;;;;;5064061;28;20048;-79
2023/05/02 03:37:38;;;;;;;13.93;3.28;;;11.10;72.00;;;;;;5048307;28;20214;-79
2023/05/02 03:40:08;;;;;;;13.48;3.05;;;11.10;71.60;;;;;;5049550;28;20478;-78
2023/05/02 03:42:40;;;;;;;17.93;3.67;;;11.10;71.50;;;;;;5049308;28;20115;-79
2023/05/02 03:45:12;;;;;;;12.68;3.00;;;11.10;71.30;;;;;;5065548;28;20057;-79
2023/05/02 03:47:39;;;;;;;13.40;3.25;;;11.10;71.20;;;;;;5047577;28;20424;-78
2023/05/02 03:50:07;;;;;;;14.35;3.22;;;11.00;70.90;;;;;;5049062;28;20051;-78
2023/05/02 03:52:35;;;;;;;11.13;2.92;;;11.00;70.70;;;;;;5045352;28;20049;-78
2023/05/02 03:55:03;;;;;;;14.10;2.60;;;10.90;70.80;;;;;;5062603;28;20077;-78
2023/05/02 03:57:32;;;;;;;10.00;2.42;;;10.90;70.70;;;;;;5048723;28;20111;-78
2023/05/02 04:00:00;;;;;;;11.75;2.22;;;10.90;70.60;;;;;;5052820;28;20057;-78
2023/05/02 04:02:28;;;;;;;10.40;2.33;;;10.90;70.40;;;;;;5060622;28;20514;-79
2023/05/02 04:04:55;;;;;;;13.02;2.17;;;10.90;70.20;;;;;;5062612;28;20052;-78
2023/05/02 04:07:24;;;;;;;10.70;2.03;;;10.90;70.10;;;;;;5065862;28;20045;-78
2023/05/02 04:10:01;;;;;;;14.50;2.65;;;10.80;69.70;;;;;;5065836;28;20049;-79
2023/05/02 04:12:29;;;;;;;8.35;1.77;;;10.80;69.30;;;;;;5048951;28;20045;-78
2023/05/02 04:14:58;;;;;;;11.15;1.85;;;10.70;69.20;;;;;;5066051;28;20088;-78
2023/05/02 04:17:28;;;;;;;8.73;2.13;;;10.70;68.90;;;;;;5045959;28;20084;-78
2023/05/02 04:19:56;;;;;;;9.53;2.07;;;10.70;68.80;;;;;;5046480;28;20499;-78
2023/05/02 04:22:26;;;;;;;8.77;1.73;;;10.60;68.70;;;;;;5045952;28;20045;-79
2023/05/02 04:25:18;;;;;;;10.52;2.10;;;10.60;68.70;;;;;;5067397;28;20175;-78
2023/05/02 04:27:46;;;;;;;10.00;1.83;;;10.60;68.80;;;;;;5043205;28;20049;-78
2023/05/02 04:30:17;;;;;;;9.55;1.90;;;10.60;68.80;;;;;;5068788;28;20060;-78
2023/05/02 04:32:52;;;;;;;10.30;2.10;;;10.60;68.70;;;;;;5068885;28;20668;-78
2023/05/02 04:35:20;;;;;;;7.03;1.60;;;10.50;68.80;;;;;;5069430;28;20137;-78
2023/05/02 04:37:47;;;;;;;11.20;1.80;;;10.50;68.50;;;;;;5063291;28;20056;-78
2023/05/02 04:40:15;;;;;;;9.55;1.70;;;10.50;68.40;;;;;;5085685;28;20608;-78
2023/05/02 04:42:45;;;;;;;9.63;1.73;;;10.50;68.40;;;;;;5051847;28;20053;-78
2023/05/02 04:45:17;;;;;;;8.60;1.60;;;10.50;68.20;;;;;;5067842;28;20045;-78
2023/05/02 04:47:45;;;;;;;14.60;2.05;;;10.50;67.90;;;;;;5048013;28;20057;-78
2023/05/02 04:50:12;;;;;;;6.57;1.50;;;10.50;67.80;;;;;;5065614;28;20044;-78
2023/05/02 04:52:39;;;;;;;10.43;1.77;;;10.40;67.70;;;;;;5078190;28;20072;-78
2023/05/02 04:55:07;;;;;;;7.07;1.40;;;10.40;67.60;;;;;;5067225;28;20063;-78
2023/05/02 04:57:35;;;;;;;9.63;1.53;;;10.40;67.50;;;;;;5052013;28;20041;-78
2023/05/02 05:00:03;;;;;;;6.45;1.63;;;10.30;67.30;;;;;;5047835;28;20053;-78
2023/05/02 05:02:31;;;;;;;10.27;1.60;;;10.30;67.50;;;;;;5051837;28;20155;-78
2023/05/02 05:05:01;;;;;;;9.25;1.70;;;10.30;67.50;;;;;;5051976;28;20045;-78
2023/05/02 05:07:28;;;;;;;10.02;1.50;;;10.30;67.60;;;;;;5051938;28;20130;-78
2023/05/02 05:09:55;;;;;;;6.87;1.37;;;10.30;67.50;;;;;;5069107;28;20136;-78
2023/05/02 05:12:25;;;;;;;7.88;1.40;;;10.30;67.40;;;;;;5068671;28;20099;-77
2023/05/02 05:14:52;;;;;;;7.90;1.60;;;10.30;67.20;;;;;;5051346;28;20135;-78
2023/05/02 05:17:21;;;;;;;9.13;1.30;;;10.30;67.20;;;;;;5066824;28;20049;-78
2023/05/02 05:19:50;;;;;;;8.45;1.52;;;10.20;67.00;;;;;;5065121;28;20049;-78
2023/05/02 05:22:19;;;;;;;7.67;1.63;;;10.20;66.90;;;;;;5064060;28;20060;-77
2023/05/02 05:24:52;;;;;;;6.15;1.25;;;10.20;66.60;;;;;;5063331;28;20059;-78
2023/05/02 05:27:20;;;;;;;4.60;1.30;;;10.20;66.50;;;;;;5049621;28;20108;-78
2023/05/02 05:29:47;;;;;;;5.60;1.17;;;10.20;66.50;;;;;;5060993;28;20053;-78
2023/05/02 05:32:15;;;;;;;6.60;1.65;;;10.20;66.20;;;;;;5046946;28;20177;-78
2023/05/02 05:34:43;;;;;;;7.60;1.17;;;10.20;66.20;;;;;;5047491;28;20041;-78
2023/05/02 05:37:12;;;;;;;6.93;1.20;;;10.20;66.00;;;;;;5046924;28;20052;-78
2023/05/02 05:39:40;;;;;;;6.88;1.30;;;10.20;66.00;;;;;;4986830;28;20141;-78
2023/05/02 05:42:08;;;;;;;5.90;1.20;;;10.20;65.90;;;;;;5048186;28;20447;-78
2023/05/02 05:44:36;;;;;;;7.15;1.20;;;10.10;65.90;;;;;;5068235;28;20045;-78
2023/05/02 05:47:03;;;;;;;6.07;1.10;;;10.20;65.90;;;;;;5066145;28;20103;-78
2023/05/02 05:49:31;;;;;;;8.23;1.20;;;10.10;65.60;;;;;;5065821;28;20697;-78
2023/05/02 05:51:58;;;;;;;6.20;1.30;;;10.10;65.80;;;;;;5058355;28;21011;-78
2023/05/02 05:54:27;;;;;;;8.30;1.30;;;10.10;65.50;;;;;;5063693;28;20049;-78
2023/05/02 05:56:54;;;;;;;7.70;1.75;;;10.10;65.50;;;;;;5040599;28;20136;-78
2023/05/02 05:59:21;;;;;;;5.20;1.30;;;10.10;65.20;;;;;;5066422;28;20049;-77
2023/05/02 06:01:49;;;;;;;6.45;1.45;;;10.10;65.40;;;;;;5047769;28;20053;-77
2023/05/02 06:04:18;;;;;;;7.05;1.80;;;10.10;65.00;;;;;;5066690;28;20526;-78
2023/05/02 06:06:50;;;;;;;8.27;1.88;;;10.10;65.10;;;;;;5054635;28;20048;-75
2023/05/02 06:09:17;;;;;;;8.70;1.35;;;10.10;65.10;;;;;;5050558;28;20069;-78
2023/05/02 06:11:46;;;;;;;8.93;1.60;;;10.10;65.20;;;;;;5050812;28;20558;-77
2023/05/02 06:14:13;;;;;;;7.30;1.35;;;10.10;65.20;;;;;;5066804;28;20130;-78
2023/05/02 06:16:42;;;;;;;6.38;1.48;;;10.10;65.20;;;;;;5066051;28;20135;-78
2023/05/02 06:19:09;;;;;;;8.25;1.50;;;10.10;64.90;;;;;;5066510;28;20142;-78
2023/05/02 06:21:36;;;;;;;8.25;1.20;;;10.10;64.70;;;;;;5049093;28;20041;-78
2023/05/02 06:24:04;;;;;;;6.17;1.50;;;10.10;64.50;;;;;;5060290;28;20056;-78
2023/05/02 06:26:31;;;;;;;7.13;1.48;;;10.10;64.00;;;;;;5065956;28;20080;-78
2023/05/02 06:29:00;;;;;;;7.05;1.33;;;10.00;63.00;;;;;;5061990;28;20131;-76
2023/05/02 06:31:27;;;;;;;9.95;1.73;;;10.00;63.00;;;;;;5066321;28;20056;-77
2023/05/02 06:33:54;;;;;;;9.43;1.70;;;10.00;62.90;;;;;;5050101;28;20132;-77
2023/05/02 06:36:21;;;;;;;7.33;1.90;;;10.00;62.90;;;;;;5048290;28;20499;-76
2023/05/02 06:38:48;;;;;;;7.85;1.60;;;10.00;62.90;;;;;;5062499;28;20048;-77
2023/05/02 06:41:15;;;;;;;8.30;1.88;;;10.00;62.10;;;;;;5063051;28;20095;-77
2023/05/02 06:43:42;;;;;;;6.93;1.70;;;10.00;62.50;;;;;;5060824;28;20051;-77
2023/05/02 06:46:11;;;;;;;7.03;1.20;;;9.90;62.70;;;;;;5065102;28;20059;-77
2023/05/02 06:48:38;;;;;;;6.83;1.60;;;9.90;62.30;;;;;;5065343;28;20107;-77
2023/05/02 06:51:06;;;;;;;8.85;1.85;;;9.80;61.90;;;;;;5065422;28;20052;-77
2023/05/02 06:53:33;;;;;;;6.85;1.65;;;9.80;62.00;;;;;;5047307;28;20511;-77
2023/05/02 06:56:00;;;;;;;6.43;1.70;;;9.80;62.10;;;;;;5045783;28;20108;-77
2023/05/02 06:58:27;;;;;;;10.30;2.00;;;9.80;62.20;;;;;;5059431;28;20045;-77
2023/05/02 07:00:54;;;;;;;10.57;1.70;;;9.80;62.40;;;;;;5060729;28;20091;-77
2023/05/02 07:03:22;;;;;;;6.22;1.60;;;9.80;62.60;;;;;;5068510;28;20060;-77
2023/05/02 07:05:49;;;;;;;6.93;1.60;;;9.80;62.60;;;;;;5067230;28;20144;-77
2023/05/02 07:08:17;;;;;;;6.13;1.80;;;9.80;62.30;;;;;;5067125;28;20487;-77
2023/05/02 07:10:44;;;;;;;6.75;1.60;;;9.80;62.60;;;;;;5066818;28;20439;-77
2023/05/02 07:13:11;;;;;;;6.63;1.80;;;9.80;62.80;;;;;;5066882;28;20139;-77
2023/05/02 07:15:38;;;;;;;9.88;2.00;;;9.80;63.00;;;;;;5067007;28;20853;-77
2023/05/02 07:18:05;;;;;;;8.27;2.10;;;9.80;63.30;;;;;;5065388;28;20049;-77
2023/05/02 07:20:33;;;;;;;8.55;1.98;;;9.80;63.00;;;;;;5066827;28;20080;-77
2023/05/02 07:23:00;;;;;;;7.57;1.77;;;9.80;62.90;;;;;;5066852;28;20136;-77
2023/05/02 07:25:28;;;;;;;10.17;2.10;;;9.80;63.00;;;;;;5066773;28;20049;-77
2023/05/02 07:27:55;;;;;;;8.18;1.80;;;9.90;63.20;;;;;;5055425;28;20053;-77
2023/05/02 07:30:22;;;;;;;8.27;1.70;;;9.90;63.20;;;;;;5029901;28;20104;-77
2023/05/02 07:32:49;;;;;;;6.30;1.52;;;10.00;63.40;;;;;;5056359;28;20045;-77
2023/05/02 07:35:18;;;;;;;11.38;2.15;;;10.00;63.20;;;;;;5066963;28;20053;-77
2023/05/02 07:37:47;;;;;;;7.43;1.60;;;10.00;63.10;;;;;;5068150;28;20871;-77
2023/05/02 07:40:14;;;;;;;7.25;1.90;;;10.00;63.20;;;;;;5067980;28;20064;-77
2023/05/02 07:42:41;;;;;;;6.47;1.80;;;10.00;62.90;;;;;;5066534;28;20389;-77
2023/05/02 07:45:09;;;;;;;9.25;2.05;;;10.00;62.80;;;;;;5049681;28;20075;-77
2023/05/02 07:47:37;;;;;;;9.98;2.17;;;10.00;62.60;;;;;;5066300;28;20111;-77
2023/05/02 07:50:04;;;;;;;11.10;2.00;;;10.00;62.50;;;;;;5066592;28;20053;-77
2023/05/02 07:52:32;;;;;;;8.75;2.25;;;10.00;62.50;;;;;;5065112;28;20052;-77
2023/05/02 07:55:01;;;;;;;9.82;2.10;;;10.00;62.80;;;;;;5068150;28;20053;-77
2023/05/02 07:57:28;;;;;;;7.68;1.80;;;10.00;62.80;;;;;;5067681;28;20052;-77
2023/05/02 07:59:56;;;;;;;6.25;1.80;;;10.00;62.80;;;;;;5069771;28;20051;-77
2023/05/02 08:02:24;;;;;;;8.13;1.90;;;10.00;62.90;;;;;;5067584;28;20045;-77
2023/05/02 08:04:52;;;;;;;6.57;1.80;;;10.00;63.20;;;;;;5071624;28;20053;-77
2023/05/02 08:07:20;;;;;;;9.20;2.13;;;10.10;63.30;;;;;;5071388;28;20057;-77
2023/05/02 08:09:47;;;;;;;5.65;1.70;;;10.10;62.90;;;;;;5068463;28;20049;-77
2023/05/02 08:12:15;;;;;;;6.22;1.90;;;10.10;62.70;;;;;;5069458;28;20574;-80
2023/05/02 08:14:42;;;;;;;5.43;1.60;;;10.10;62.40;;;;;;5070387;28;20049;-80
2023/05/02 08:17:10;;;;;;;8.27;1.67;;;10.10;62.40;;;;;;5069621;28;20048;-81
2023/05/02 08:19:37;;;;;;;9.43;1.90;;;10.10;62.90;;;;;;5070137;28;20045;-80
2023/05/02 08:22:04;;;;;;;7.85;2.00;;;10.20;62.50;;;;;;5069422;28;20088;-80
2023/05/02 08:24:31;;;;;;;6.97;1.98;;;10.20;62.20;;;;;;5069494;28;20054;-80
2023/05/02 08:26:58;;;;;;;7.77;2.30;;;10.20;62.30;;;;;;5067817;28;20053;-80
2023/05/02 08:29:27;;;;;;;9.07;1.92;;;10.20;62.20;;;;;;5071429;28;21043;-81
2023/05/02 08:31:54;;;;;;;6.90;2.00;;;10.30;61.70;;;;;;5069381;28;20041;-81
2023/05/02 08:34:21;;;;;;;10.50;1.88;;;10.30;61.50;;;;;;5069942;28;20541;-81
2023/05/02 08:36:48;;;;;;;9.60;2.08;;;10.30;61.70;;;;;;5069489;28;20132;-81
2023/05/02 08:39:15;;;;;;;5.53;1.57;;;10.30;61.90;;;;;;5069743;28;20053;-82
2023/05/02 08:41:43;;;;;;;9.88;1.90;;;10.30;61.80;;;;;;5069355;28;20049;-83
2023/05/02 08:44:12;;;;;;;5.78;1.75;;;10.40;62.00;;;;;;5068327;28;20072;-81
2023/05/02 08:46:42;;;;;;;9.02;1.90;;;10.40;61.80;;;;;;5069347;28;20072;-81
2023/05/02 08:49:11;;;;;;;6.20;1.80;;;10.40;61.70;;;;;;5069565;28;20049;-81
2023/05/02 08:51:40;;;;;;;7.23;1.80;;;10.40;61.60;;;;;;5068984;28;20519;-81
2023/05/02 08:54:09;;;;;;;9.05;2.20;;;10.40;61.40;;;;;;5069217;28;20080;-81
2023/05/02 08:56:38;;;;;;;9.02;2.03;;;10.50;60.90;;;;;;5069160;28;20059;-81
2023/05/02 08:59:07;;;;;;;7.03;1.80;;;10.50;60.90;;;;;;5075195;27;20096;-81
2023/05/02 09:01:36;;;;;;;5.32;1.95;;;10.50;60.90;;;;;;5068863;28;20939;-81
2023/05/02 09:04:05;;;;;;;9.97;2.37;;;10.50;60.60;;;;;;5086277;28;20061;-81
2023/05/02 09:06:32;;;;;;;7.85;1.90;;;10.60;60.70;;;;;;5069089;28;20084;-81
2023/05/02 09:09:00;;;;;;;9.57;2.03;;;10.50;60.40;;;;;;5069035;28;20115;-80
2023/05/02 09:11:27;;;;;;;6.97;1.55;;;10.50;60.30;;;;;;5068055;28;20053;-81
2023/05/02 09:13:54;;;;;;;6.07;1.60;;;10.60;59.20;;;;;;5068959;28;20049;-80
2023/05/02 09:16:23;;;;;;;6.60;1.40;;;10.60;59.30;;;;;;5069475;28;20495;-80
2023/05/02 09:18:51;;;;;;;7.03;1.80;;;10.60;59.60;;;;;;5051681;28;20107;-80
2023/05/02 09:21:21;;;;;;;7.28;1.50;;;10.60;59.80;;;;;;5068944;28;20857;-80
2023/05/02 09:23:50;;;;;;;7.15;1.70;;;10.60;59.50;;;;;;5068837;28;20057;-80
2023/05/02 09:26:18;;;;;;;6.90;1.50;;;10.60;59.50;;;;;;5070580;28;20052;-80
2023/05/02 09:28:47;;;;;;;5.43;1.30;;;10.60;59.60;;;;;;5068674;28;20060;-80
2023/05/02 09:31:15;;;;;;;7.22;1.73;;;10.60;58.30;;;;;;5070223;28;20091;-80
2023/05/02 09:33:43;;;;;;;8.02;1.50;;;10.60;58.70;;;;;;5053264;28;20053;-80
2023/05/02 09:36:13;;;;;;;5.82;1.50;;;10.60;59.00;;;;;;5069279;28;20937;-82
2023/05/02 09:38:42;;;;;;;7.70;2.10;;;10.60;58.90;;;;;;5068476;28;20053;-83
2023/05/02 09:41:10;;;;;;;8.70;1.63;;;10.60;59.00;;;;;;5068110;28;20616;-82
2023/05/02 09:43:37;;;;;;;7.35;1.50;;;10.70;59.20;;;;;;5068360;28;20044;-81
2023/05/02 09:46:06;;;;;;;6.53;1.63;;;10.70;59.40;;;;;;5068204;28;20160;-81
2023/05/02 09:48:51;;;;;;;5.05;1.30;;;10.70;59.60;;;;;;5068280;28;20049;-82
2023/05/02 09:51:20;;;;;;;6.00;1.40;;;10.70;60.30;;;;;;5067942;28;20155;-81
2023/05/02 09:53:48;;;;;;;6.20;1.53;;;10.80;59.10;;;;;;5066751;28;20563;-81
2023/05/02 09:56:16;;;;;;;5.88;1.52;;;10.80;58.70;;;;;;5068157;28;21014;-81
2023/05/02 09:58:43;;;;;;;7.45;1.60;;;10.80;58.70;;;;;;5068437;28;20160;-81
2023/05/02 10:01:14;;;;;;;6.57;1.67;;;10.80;58.80;;;;;;5067924;28;20928;-81
2023/05/02 10:03:43;;;;;;;6.30;1.88;;;10.80;59.00;;;;;;5068195;28;20059;-82
2023/05/02 10:06:11;;;;;;;5.77;1.30;;;10.80;59.00;;;;;;5068185;28;20056;-82
2023/05/02 10:08:40;;;;;;;6.38;1.45;;;10.80;59.00;;;;;;5068316;28;20182;-81
2023/05/02 10:11:09;;;;;;;6.22;1.40;;;10.80;57.40;;;;;;5066900;28;20793;-81
2023/05/02 10:13:39;;;;;;;6.47;1.60;;;10.80;57.40;;;;;;5067798;28;20049;-81
2023/05/02 10:16:07;;;;;;;4.88;1.60;;;10.80;57.70;;;;;;5068086;28;20547;-81
2023/05/02 10:18:42;;;;;;;6.80;1.17;;;10.80;57.70;;;;;;5069118;28;20110;-81
2023/05/02 10:21:11;;;;;;;6.65;1.30;;;10.80;58.00;;;;;;5067428;28;20168;-82
2023/05/02 10:23:42;;;;;;;4.65;1.10;;;10.80;58.00;;;;;;5067311;28;20057;-82
2023/05/02 10:26:12;;;;;;;5.28;1.10;;;10.90;58.30;;;;;;5067481;28;20134;-81
2023/05/02 10:28:41;;;;;;;5.43;1.08;;;10.90;57.40;;;;;;5066411;28;20053;-81
2023/05/02 10:31:10;;;;;;;5.37;1.00;;;10.90;57.90;;;;;;5070423;28;20045;-83
2023/05/02 10:33:38;;;;;;;6.85;1.30;;;11.00;58.20;;;;;;5067747;28;20461;-82
2023/05/02 10:36:08;;;;;;;7.30;1.20;;;11.00;58.40;;;;;;5067796;28;20112;-82
2023/05/02 10:38:36;;;;;;;5.75;1.10;;;11.10;58.20;;;;;;5067506;28;20041;-81
2023/05/02 10:41:08;;;;;;;6.55;0.90;;;11.10;58.00;;;;;;5066936;28;20102;-82
2023/05/02 10:43:38;;;;;;;5.03;1.07;;;11.10;57.30;;;;;;5067724;28;20128;-81
2023/05/02 10:46:29;;;;;;;5.20;0.90;;;11.10;57.60;;;;;;5066439;28;20160;-82
2023/05/02 10:49:05;;;;;;;6.40;1.30;;;11.10;57.90;;;;;;5067199;28;20049;-82
2023/05/02 10:51:33;;;;;;;6.22;1.05;;;11.10;57.70;;;;;;5067263;28;20053;-81
2023/05/02 10:54:19;;;;;;;5.05;0.77;;;11.20;57.50;;;;;;5061437;28;20132;-81
2023/05/02 10:57:04;;;;;;;6.27;0.80;;;11.20;57.90;;;;;;5051160;28;20049;-84
2023/05/02 10:59:34;;;;;;;4.72;0.80;;;11.30;58.50;;;;;;5047702;28;20049;-81
2023/05/02 11:02:02;;;;;;;6.05;0.88;;;11.30;57.40;;;;;;5057144;28;20072;-82
2023/05/02 11:05:00;;;;;;;4.40;1.00;;;11.30;57.20;;;;;;5066764;28;20068;-81
2023/05/02 11:07:27;;;;;;;5.85;0.90;;;11.40;57.50;;;;;;5067349;28;20045;-81
2023/05/02 11:10:19;;;;;;;3.63;1.03;;;11.40;58.00;;;;;;5067382;28;20045;-82
2023/05/02 11:12:47;;;;;;;3.65;0.70;;;11.50;57.70;;;;;;5067033;28;20049;-81
2023/05/02 11:15:37;;;;;;;3.45;0.88;;;11.50;57.30;;;;;;5046828;28;20064;-81
2023/05/02 11:18:06;;;;;;;4.68;0.88;;;11.50;57.30;;;;;;5048134;28;20107;-81
2023/05/02 11:20:34;;;;;;;3.38;0.60;;;11.50;57.70;;;;;;5066089;28;20507;-80
2023/05/02 11:23:21;;;;;;;3.63;0.70;;;11.60;57.90;;;;;;5066659;28;20114;-81
2023/05/02 11:25:49;;;;;;;6.35;0.90;;;11.70;58.80;;;;;;5066852;28;20053;-81
2023/05/02 11:28:46;;;;;;;4.32;0.80;;;11.70;58.40;;;;;;5066685;28;20085;-82
2023/05/02 11:31:54;;;;;;;6.70;0.90;;;11.70;58.00;;;;;;5066371;28;20106;-81
2023/05/02 11:34:23;;;;;;;3.03;0.65;;;11.80;58.10;;;;;;5061171;28;20124;-82
2023/05/02 11:37:22;;;;;;;4.07;0.80;;;11.90;57.70;;;;;;5067374;28;20132;-81
2023/05/02 11:39:50;;;;;;;3.75;0.88;;;11.90;57.90;;;;;;5065692;28;20152;-82
2023/05/02 11:42:30;;;;;;;4.63;1.30;;;11.90;58.20;;;;;;5050028;28;20059;-82
2023/05/02 11:44:58;;;;;;;3.78;0.70;;;11.90;57.50;;;;;;5067291;28;20114;-82
2023/05/02 11:47:28;;;;;;;4.25;0.80;;;12.00;57.20;;;;;;5066977;28;20071;-81
2023/05/02 11:49:58;;;;;;;4.23;1.00;;;12.00;57.10;;;;;;5067008;28;20156;-82
2023/05/02 11:52:25;;;;;;;4.35;0.75;;;12.00;56.50;;;;;;5066495;28;20060;-82
2023/05/02 11:54:54;;;;;;;4.10;0.60;;;12.00;56.50;;;;;;5066559;28;20045;-82
2023/05/02 11:57:21;;;;;;;4.55;0.90;;;12.00;56.50;;;;;;5065401;28;20049;-82
2023/05/02 11:59:52;;;;;;;3.72;0.90;;;12.00;56.50;;;;;;5066622;28;20048;-83
2023/05/02 12:02:21;;;;;;;3.03;0.80;;;12.00;56.50;;;;;;5066285;28;20128;-83
2023/05/02 12:04:48;;;;;;;4.13;0.80;;;12.10;57.20;;;;;;5066662;28;20060;-81
2023/05/02 12:07:16;;;;;;;5.93;0.90;;;12.10;56.90;;;;;;5065970;28;20130;-82
2023/05/02 12:09:53;;;;;;;4.25;0.63;;;12.10;56.90;;;;;;5066421;28;20057;-81
2023/05/02 12:12:21;;;;;;;3.00;0.60;;;12.20;56.80;;;;;;5066430;28;20049;-82
2023/05/02 12:14:48;;;;;;;4.67;1.00;;;12.20;57.40;;;;;;5065391;28;20124;-81
2023/05/02 12:17:15;;;;;;;4.43;0.90;;;12.20;57.50;;;;;;5066557;28;20478;-82
2023/05/02 12:19:43;;;;;;;4.85;1.17;;;12.20;57.60;;;;;;5067905;28;20081;-82
2023/05/02 12:22:12;;;;;;;5.88;1.02;;;12.30;57.60;;;;;;5043523;28;20053;-82
2023/05/02 12:24:42;;;;;;;4.85;0.88;;;12.30;57.90;;;;;;5044019;28;20123;-82
2023/05/02 12:27:10;;;;;;;4.50;0.87;;;12.30;57.80;;;;;;5065564;28;20052;-82
2023/05/02 12:29:41;;;;;;;3.80;0.85;;;12.40;58.10;;;;;;5066059;28;20080;-81
2023/05/02 12:32:08;;;;;;;3.40;1.00;;;12.40;58.10;;;;;;5064840;28;20056;-81
2023/05/02 12:34:36;;;;;;;3.38;1.05;;;12.50;57.80;;;;;;5066091;28;20503;-82
2023/05/02 12:37:04;;;;;;;4.20;1.00;;;12.50;57.70;;;;;;5066101;28;20057;-81
2023/05/02 12:39:35;;;;;;;5.57;1.03;;;12.50;56.80;;;;;;5066303;28;20128;-82
2023/05/02 12:42:11;;;;;;;3.70;1.00;;;12.50;56.50;;;;;;5065809;28;20128;-80
2023/05/02 12:44:39;;;;;;;5.43;1.15;;;12.50;56.60;;;;;;5065801;28;20056;-80
2023/05/02 12:47:07;;;;;;;3.97;1.20;;;12.40;56.90;;;;;;5052508;28;20143;-80
2023/05/02 12:49:48;;;;;;;5.35;1.38;;;12.40;56.20;;;;;;5051517;28;20103;-80
2023/05/02 12:52:15;;;;;;;5.80;1.20;;;12.40;56.30;;;;;;5069469;28;20068;-81
2023/05/02 12:54:43;;;;;;;5.32;1.05;;;12.50;56.80;;;;;;5052679;28;20153;-80
2023/05/02 12:57:21;;;;;;;3.35;0.80;;;12.50;56.80;;;;;;5069025;28;20045;-81
2023/05/02 12:59:51;;;;;;;3.90;0.80;;;12.50;56.50;;;;;;5069269;28;20069;-82
2023/05/02 13:02:18;;;;;;;4.55;0.90;;;12.40;55.90;;;;;;5069237;28;20562;-81